Авиационная погода в Алматы

СКИДКИ НА СМАРТФОНЫ!

Регион: 
Погода METAR: 
UAAA 190300Z 27004MPS 9999 FEW050CB BKN100 20/02 Q1013 NOSIG
Время наблюдения
2022-08-19T03:00:00Z
Температура C
20.0
Точка росы
2.0
Направление ветра
270
Скорость ветра (узлы)
8
Метео видимость
6.21
Облачность
FEW
BKN
Нижняя граница облачности (футы)
5000
10000
Явления погоды
Условия полета
VFR
Аэропорт подробнее: 
FEW – незначительная облачность; BKN – значительная (рассеянная, разорванная) облачность;

Скидки на навигаторы!